Time;durP1;ratioP1;P1;durP2;ratioP2;P2;SDS_P1;SDS_P2;PMS_P1;PMS_P2;Temp;Humidity;BMP_temperature;BMP_pressure;BME280_temperature;BME280_humidity;BME280_pressure;Samples;Min_cycle;Max_cycle;Signal;HPM_P1;HPM_P2
2022/04/28 04:03:54;;;;;;;24.40;20.67;;;2.50;99.90;;;;;;5603641;23;20541;-78
2022/04/28 04:06:23;;;;;;;24.63;20.60;;;2.40;99.90;;;;;;4878002;29;20945;-77
2022/04/28 04:08:51;;;;;;;25.43;21.03;;;2.40;99.90;;;;;;4871060;29;20215;-78
2022/04/28 04:11:19;;;;;;;24.43;20.67;;;2.40;99.90;;;;;;4889618;29;20300;-79
2022/04/28 04:13:49;;;;;;;24.77;20.27;;;2.40;99.90;;;;;;4895814;29;20304;-78
2022/04/28 04:16:17;;;;;;;21.97;19.53;;;2.40;99.90;;;;;;4892583;29;20244;-79
2022/04/28 04:18:46;;;;;;;25.23;19.60;;;2.40;99.90;;;;;;4896585;29;20446;-79
2022/04/28 04:21:16;;;;;;;24.63;19.80;;;2.40;99.90;;;;;;4897050;29;20240;-79
2022/04/28 04:23:44;;;;;;;33.80;26.67;;;2.40;99.90;;;;;;4886368;29;20462;-76
2022/04/28 04:26:11;;;;;;;30.50;21.20;;;2.40;99.90;;;;;;4880787;29;20473;-77
2022/04/28 04:28:40;;;;;;;28.73;23.17;;;2.40;99.90;;;;;;4878906;29;20465;-76
2022/04/28 04:33:53;;;;;;;30.53;21.20;;;2.50;99.90;;;;;;4881257;29;20562;-78
2022/04/28 04:36:22;;;;;;;24.77;20.33;;;2.50;99.90;;;;;;4879432;29;20944;-79
2022/04/28 04:38:50;;;;;;;25.53;20.20;;;2.60;99.90;;;;;;4877956;29;20732;-77
2022/04/28 04:41:19;;;;;;;25.97;19.33;;;2.60;99.90;;;;;;4875602;29;20210;-78
2022/04/28 04:43:49;;;;;;;26.20;20.23;;;2.70;99.90;;;;;;4878488;29;20302;-79
2022/04/28 04:46:17;;;;;;;23.63;19.03;;;2.70;99.90;;;;;;4878637;29;20238;-79
2022/04/28 04:48:45;;;;;;;24.47;19.43;;;2.80;99.90;;;;;;4874257;29;20211;-79
2022/04/28 04:51:12;;;;;;;22.27;19.17;;;2.80;99.90;;;;;;4890487;29;20237;-80
2022/04/28 04:53:43;;;;;;;27.87;19.77;;;2.90;99.90;;;;;;4896788;29;20291;-79
2022/04/28 04:56:11;;;;;;;23.10;19.23;;;2.90;99.90;;;;;;4897103;29;20213;-80
2022/04/28 04:58:39;;;;;;;23.33;19.53;;;3.00;99.90;;;;;;4883284;29;20306;-78
2022/04/28 05:01:07;;;;;;;24.43;18.93;;;3.10;99.90;;;;;;4880682;29;20242;-80
2022/04/28 05:03:35;;;;;;;22.00;17.70;;;3.10;99.90;;;;;;4880979;29;20242;-78
2022/04/28 05:06:04;;;;;;;20.13;17.77;;;3.20;99.90;;;;;;4881180;29;20313;-78
2022/04/28 05:08:32;;;;;;;21.57;17.93;;;3.30;99.90;;;;;;4879189;29;20207;-79
2022/04/28 05:11:01;;;;;;;19.80;17.50;;;3.40;99.90;;;;;;4881409;29;20251;-78
2022/04/28 05:13:29;;;;;;;20.97;18.77;;;3.50;99.90;;;;;;4881164;29;20240;-79
2022/04/28 05:15:57;;;;;;;23.60;19.20;;;3.60;99.90;;;;;;4879892;29;20834;-80
2022/04/28 05:18:28;;;;;;;22.87;19.00;;;3.70;99.90;;;;;;4880830;29;20349;-79
2022/04/28 05:20:56;;;;;;;24.97;20.73;;;3.80;99.90;;;;;;4880539;29;20199;-79
2022/04/28 05:23:24;;;;;;;24.70;21.33;;;4.00;99.90;;;;;;4880682;29;20297;-80
2022/04/28 05:25:52;;;;;;;25.93;21.93;;;4.10;99.90;;;;;;4881357;29;20363;-77
2022/04/28 05:28:21;;;;;;;25.40;20.93;;;4.20;99.90;;;;;;4880631;29;20310;-78
2022/04/28 05:30:50;;;;;;;23.83;21.33;;;4.20;99.90;;;;;;4880733;29;20305;-80
2022/04/28 05:33:18;;;;;;;26.47;22.87;;;4.30;99.90;;;;;;4880944;29;20621;-79
2022/04/28 05:35:47;;;;;;;25.57;22.23;;;4.50;99.90;;;;;;4879420;29;20272;-79
2022/04/28 05:38:15;;;;;;;24.37;21.77;;;4.60;99.90;;;;;;4874046;29;20649;-79
2022/04/28 05:40:43;;;;;;;26.97;22.60;;;4.70;99.90;;;;;;4861269;29;20207;-78
2022/04/28 05:45:59;;;;;;;24.53;21.87;;;5.00;99.90;;;;;;4859484;29;20274;-79
2022/04/28 05:48:28;;;;;;;25.47;21.80;;;5.10;99.90;;;;;;4853897;29;20790;-78
2022/04/28 05:50:58;;;;;;;24.17;21.00;;;5.30;99.90;;;;;;4872420;29;20241;-77
2022/04/28 05:53:27;;;;;;;21.40;19.20;;;5.40;99.90;;;;;;4880219;29;20628;-78
2022/04/28 05:55:55;;;;;;;20.20;18.00;;;5.60;99.90;;;;;;4879874;29;20664;-78
2022/04/28 05:58:23;;;;;;;19.63;17.47;;;5.80;99.90;;;;;;4880729;29;20244;-78
2022/04/28 06:00:51;;;;;;;18.43;16.53;;;6.10;99.90;;;;;;4880082;29;20305;-78
2022/04/28 06:03:20;;;;;;;18.43;16.53;;;6.30;99.90;;;;;;4879966;29;20234;-78
2022/04/28 06:05:49;;;;;;;17.43;15.63;;;6.90;99.90;;;;;;4862144;29;20211;-78
2022/04/28 06:08:17;;;;;;;15.87;13.67;;;7.80;99.90;;;;;;4862244;29;20313;-79
2022/04/28 06:10:45;;;;;;;15.27;11.77;;;9.20;99.90;;;;;;4873858;29;20210;-79
2022/04/28 06:13:12;;;;;;;13.27;10.40;;;11.10;99.90;;;;;;4860937;29;20273;-79
2022/04/28 06:15:40;;;;;;;12.27;11.00;;;12.80;99.90;;;;;;4857476;29;20723;-78
2022/04/28 06:18:09;;;;;;;11.57;10.37;;;14.30;99.90;;;;;;4860372;29;20238;-77
2022/04/28 06:20:38;;;;;;;11.57;10.00;;;15.20;99.90;;;;;;4846709;29;20326;-78
2022/04/28 06:23:06;;;;;;;11.03;9.97;;;15.80;99.90;;;;;;4849124;29;20674;-79
2022/04/28 06:25:34;;;;;;;10.37;9.27;;;16.20;99.90;;;;;;4845730;29;20290;-78
2022/04/28 06:28:02;;;;;;;10.03;9.13;;;16.40;99.90;;;;;;4863522;29;20219;-80
2022/04/28 06:30:31;;;;;;;10.20;9.13;;;16.40;99.90;;;;;;4853699;29;20214;-78
2022/04/28 06:32:59;;;;;;;10.23;9.23;;;17.20;99.90;;;;;;4844374;29;20391;-78
2022/04/28 06:35:28;;;;;;;10.30;9.27;;;17.70;99.90;;;;;;4859011;29;20273;-76
2022/04/28 06:37:57;;;;;;;10.17;8.33;;;17.90;99.90;;;;;;4860148;29;20582;-79
2022/04/28 06:40:25;;;;;;;9.97;8.97;;;18.40;99.90;;;;;;4856643;29;20264;-75
2022/04/28 06:42:54;;;;;;;9.60;8.67;;;18.10;99.90;;;;;;4841030;29;20224;-77
2022/04/28 06:45:22;;;;;;;9.53;8.63;;;18.20;99.90;;;;;;4860233;29;20290;-79
2022/04/28 06:47:50;;;;;;;8.70;7.90;;;19.00;99.10;;;;;;4852890;29;20290;-80
2022/04/28 06:50:18;;;;;;;9.07;8.17;;;20.00;97.90;;;;;;4855804;29;20258;-80
2022/04/28 06:52:46;;;;;;;9.10;8.20;;;20.10;95.30;;;;;;4843751;29;20203;-80
2022/04/28 06:55:16;;;;;;;9.50;8.60;;;20.30;95.10;;;;;;4852635;29;20255;-80
2022/04/28 06:57:44;;;;;;;8.27;7.57;;;20.70;94.40;;;;;;4857177;29;20290;-81
2022/04/28 07:00:13;;;;;;;8.85;8.05;;;20.60;96.00;;;;;;4854868;29;20211;-79
2022/04/28 07:02:41;;;;;;;8.60;7.80;;;20.20;94.20;;;;;;4846489;29;20716;-78
2022/04/28 07:05:10;;;;;;;8.47;7.67;;;20.30;94.80;;;;;;4845937;29;20212;-76
2022/04/28 07:07:39;;;;;;;9.30;8.50;;;19.70;94.50;;;;;;4874209;29;20649;-76
2022/04/28 07:10:08;;;;;;;8.33;7.60;;;18.70;95.90;;;;;;4878831;29;20314;-76
2022/04/28 07:12:41;;;;;;;8.50;7.70;;;19.40;95.60;;;;;;4843939;29;20207;-76
2022/04/28 07:15:09;;;;;;;7.78;7.07;;;19.80;97.20;;;;;;4842851;29;20643;-75
2022/04/28 07:17:37;;;;;;;8.77;7.88;;;21.30;93.30;;;;;;4842951;29;20623;-79
2022/04/28 07:20:07;;;;;;;8.82;7.93;;;21.80;90.90;;;;;;4843092;29;20639;-78
2022/04/28 07:22:35;;;;;;;9.05;8.23;;;21.20;91.30;;;;;;4860017;29;20297;-78
2022/04/28 07:25:03;;;;;;;8.00;7.30;;;20.40;92.80;;;;;;4858156;29;20216;-75
2022/04/28 07:27:31;;;;;;;7.87;7.17;;;21.00;91.80;;;;;;4849537;29;20713;-76
2022/04/28 07:30:02;;;;;;;7.75;6.93;;;21.60;90.40;;;;;;4845003;29;20234;-75
2022/04/28 07:32:34;;;;;;;8.47;7.67;;;21.70;89.50;;;;;;4859925;29;20248;-78
2022/04/28 07:35:03;;;;;;;7.95;7.25;;;20.90;90.50;;;;;;4860009;29;20680;-78
2022/04/28 07:37:31;;;;;;;8.43;7.63;;;21.60;89.90;;;;;;4860071;29;20232;-76
2022/04/28 07:39:59;;;;;;;7.80;7.10;;;21.80;88.30;;;;;;4851347;29;20728;-78
2022/04/28 07:42:27;;;;;;;8.07;7.28;;;21.90;87.60;;;;;;4859874;29;20217;-75
2022/04/28 07:44:56;;;;;;;7.50;6.80;;;22.00;87.10;;;;;;4860252;29;20317;-77
2022/04/28 07:47:26;;;;;;;7.88;7.13;;;22.10;86.50;;;;;;4859696;29;20244;-81
2022/04/28 07:49:54;;;;;;;7.38;6.68;;;21.70;87.40;;;;;;4861885;29;20199;-76
2022/04/28 07:52:23;;;;;;;7.75;7.03;;;22.50;82.60;;;;;;4860735;29;20286;-79
2022/04/28 07:54:51;;;;;;;7.55;6.75;;;22.20;82.40;;;;;;4864170;29;20741;-76
2022/04/28 07:57:22;;;;;;;7.35;6.63;;;23.40;81.50;;;;;;4861348;29;20271;-79
2022/04/28 07:59:50;;;;;;;7.20;6.55;;;23.60;81.00;;;;;;4859469;29;20760;-76
2022/04/28 08:02:18;;;;;;;7.22;6.53;;;23.90;79.60;;;;;;4853885;29;20310;-77
2022/04/28 08:04:50;;;;;;;7.65;6.85;;;23.10;79.00;;;;;;4853260;29;20306;-75
2022/04/28 08:07:18;;;;;;;7.80;7.00;;;24.30;75.90;;;;;;4858677;29;20240;-79
2022/04/28 08:09:47;;;;;;;6.68;6.07;;;24.30;77.20;;;;;;4858971;29;20215;-78
2022/04/28 08:12:15;;;;;;;6.93;6.13;;;25.20;73.10;;;;;;4859699;29;20271;-77
2022/04/28 08:15:03;;;;;;;6.95;6.28;;;24.90;73.80;;;;;;4859437;29;20230;-77
2022/04/28 08:17:31;;;;;;;7.70;6.93;;;25.30;71.70;;;;;;4859292;29;20222;-79
2022/04/28 08:20:01;;;;;;;7.30;6.50;;;25.10;69.70;;;;;;4859095;29;20310;-77
2022/04/28 08:22:29;;;;;;;7.32;6.00;;;24.60;73.40;;;;;;4859764;29;20262;-79
2022/04/28 08:24:57;;;;;;;6.72;6.13;;;25.20;66.80;;;;;;4859513;29;20302;-77
2022/04/28 08:27:25;;;;;;;6.43;5.82;;;25.30;65.80;;;;;;4858542;29;20289;-77
2022/04/28 08:29:53;;;;;;;9.07;6.63;;;24.70;68.50;;;;;;4859171;29;20321;-77
2022/04/28 08:32:24;;;;;;;7.75;6.80;;;24.70;68.90;;;;;;4859464;29;20305;-76
2022/04/28 08:34:52;;;;;;;7.85;6.20;;;24.80;71.20;;;;;;4861766;29;20302;-77
2022/04/28 08:37:21;;;;;;;8.27;5.82;;;24.60;68.80;;;;;;4863247;29;20245;-76
2022/04/28 08:39:49;;;;;;;7.80;6.15;;;24.60;66.80;;;;;;4863193;29;20730;-79
2022/04/28 08:42:21;;;;;;;7.30;5.70;;;22.80;67.80;;;;;;4861889;29;20211;-77
2022/04/28 08:44:50;;;;;;;6.03;5.45;;;23.90;70.90;;;;;;4862168;29;20211;-76
2022/04/28 08:47:18;;;;;;;5.78;5.20;;;24.10;68.00;;;;;;4860552;29;20543;-76
2022/04/28 08:49:50;;;;;;;6.18;5.60;;;24.10;66.30;;;;;;4861899;29;20306;-76
2022/04/28 08:52:19;;;;;;;6.15;5.55;;;24.60;65.00;;;;;;4861033;29;20203;-77
2022/04/28 08:54:48;;;;;;;5.97;5.35;;;25.00;62.80;;;;;;4862375;29;20250;-77
2022/04/28 08:57:17;;;;;;;6.75;5.05;;;25.50;63.10;;;;;;4861606;29;20274;-78
2022/04/28 08:59:46;;;;;;;5.35;4.70;;;25.90;61.60;;;;;;4860817;29;20223;-78
2022/04/28 09:02:15;;;;;;;5.88;4.60;;;25.70;56.20;;;;;;4860904;29;20317;-74
2022/04/28 09:04:44;;;;;;;6.85;4.75;;;25.40;55.70;;;;;;4882695;29;20214;-75
2022/04/28 09:07:12;;;;;;;7.20;4.68;;;25.10;57.50;;;;;;4873937;29;20737;-77
2022/04/28 09:09:40;;;;;;;5.47;4.97;;;25.30;58.20;;;;;;4874296;29;20239;-77
2022/04/28 09:12:10;;;;;;;7.18;4.32;;;25.50;55.90;;;;;;4881872;29;20301;-75
2022/04/28 09:14:43;;;;;;;6.82;5.35;;;25.60;57.30;;;;;;4870964;29;20876;-76
2022/04/28 09:17:11;;;;;;;6.35;4.75;;;25.80;57.30;;;;;;4863015;29;20323;-76
2022/04/28 09:19:41;;;;;;;5.65;4.85;;;25.70;57.10;;;;;;4863125;29;20215;-74
2022/04/28 09:22:13;;;;;;;5.47;4.78;;;25.50;59.00;;;;;;4862315;29;20565;-74
2022/04/28 09:24:45;;;;;;;6.13;5.53;;;26.00;53.30;;;;;;4864196;29;20215;-77
2022/04/28 09:27:15;;;;;;;6.50;5.35;;;25.40;52.70;;;;;;4862898;29;20219;-74
2022/04/28 09:29:44;;;;;;;6.47;5.32;;;25.10;55.10;;;;;;4862434;29;20689;-75
2022/04/28 09:32:15;;;;;;;5.93;5.32;;;25.40;54.90;;;;;;4864762;29;20258;-74
2022/04/28 09:35:08;;;;;;;6.07;5.35;;;26.10;53.10;;;;;;4865419;29;20693;-77
2022/04/28 09:37:38;;;;;;;5.97;5.13;;;26.90;53.20;;;;;;4869379;29;20192;-77
2022/04/28 09:42:56;;;;;;;6.07;5.53;;;25.20;54.40;;;;;;4863137;29;20215;-77
2022/04/28 09:45:25;;;;;;;5.53;4.90;;;24.70;53.30;;;;;;4864041;29;20195;-76
2022/04/28 09:48:01;;;;;;;6.35;5.30;;;25.10;53.30;;;;;;4866875;29;20318;-78
2022/04/28 09:50:31;;;;;;;8.60;5.28;;;25.70;54.00;;;;;;4867617;29;20254;-79
2022/04/28 09:53:05;;;;;;;5.20;4.68;;;25.20;52.20;;;;;;4865438;29;20222;-80
2022/04/28 09:55:33;;;;;;;7.13;5.28;;;26.60;51.10;;;;;;4863930;29;20554;-76
2022/04/28 09:58:05;;;;;;;6.00;5.40;;;26.00;51.20;;;;;;4864819;29;20214;-78
2022/04/28 10:00:34;;;;;;;6.80;5.40;;;24.10;53.70;;;;;;4877472;29;20221;-75
2022/04/28 10:03:04;;;;;;;6.50;5.00;;;23.70;54.30;;;;;;4873956;29;20297;-77
2022/04/28 10:05:33;;;;;;;8.18;5.28;;;23.10;56.10;;;;;;4873397;29;20218;-79
2022/04/28 10:08:02;;;;;;;6.25;5.65;;;22.50;55.30;;;;;;4868806;29;20269;-76
2022/04/28 10:10:31;;;;;;;7.90;5.20;;;21.70;56.20;;;;;;4866936;29;20246;-78
2022/04/28 10:13:01;;;;;;;5.83;5.23;;;21.10;57.70;;;;;;4865631;29;20215;-76
2022/04/28 10:15:33;;;;;;;5.60;4.93;;;21.20;58.30;;;;;;4864340;29;20246;-80
2022/04/28 10:18:09;;;;;;;6.47;5.20;;;20.10;58.60;;;;;;4862250;29;20231;-74
2022/04/28 10:20:40;;;;;;;5.90;4.73;;;19.30;59.40;;;;;;4861835;29;20235;-75
2022/04/28 10:32:22;;;;;;;5.50;4.60;;;20.70;60.00;;;;;;4863446;29;20234;-78
2022/04/28 10:35:01;;;;;;;6.23;3.87;;;20.30;62.80;;;;;;4864895;29;20251;-80
2022/04/28 10:37:34;;;;;;;5.13;4.30;;;21.60;55.70;;;;;;4862396;29;20204;-76
2022/04/28 10:40:03;;;;;;;4.80;4.10;;;21.30;54.60;;;;;;4862969;29;20233;-77
2022/04/28 10:42:57;;;;;;;4.77;4.00;;;20.50;55.20;;;;;;4869885;29;20219;-78
2022/04/28 10:45:28;;;;;;;4.43;4.03;;;19.90;58.00;;;;;;4858411;29;20242;-76
2022/04/28 10:51:13;;;;;;;4.27;3.87;;;20.60;57.70;;;;;;4866670;29;20610;-76
2022/04/28 10:54:03;;;;;;;5.47;4.07;;;22.10;55.00;;;;;;4864483;29;20214;-74
2022/04/28 10:56:54;;;;;;;5.88;3.13;;;23.30;50.80;;;;;;4863224;29;20211;-76
2022/04/28 10:59:37;;;;;;;5.63;3.42;;;24.60;49.80;;;;;;4858708;29;20238;-78
2022/04/28 11:02:41;;;;;;;7.35;3.83;;;24.50;49.40;;;;;;4856654;29;20215;-77
2022/04/28 11:05:43;;;;;;;4.05;3.50;;;24.80;48.60;;;;;;4843292;29;20227;-75
2022/04/28 11:08:34;;;;;;;4.53;4.10;;;24.20;49.10;;;;;;4850278;29;20219;-78
2022/04/28 11:11:03;;;;;;;4.50;4.07;;;23.70;49.30;;;;;;4846566;29;20244;-78
2022/04/28 11:13:33;;;;;;;5.37;4.03;;;22.90;50.10;;;;;;4849205;29;20803;-76
2022/04/28 11:16:02;;;;;;;4.10;3.70;;;22.00;50.90;;;;;;4842895;29;20243;-74
2022/04/28 11:18:30;;;;;;;4.30;3.67;;;21.90;52.10;;;;;;4841303;29;20298;-74
2022/04/28 11:21:01;;;;;;;4.80;3.83;;;22.30;55.20;;;;;;4838952;29;20212;-77
2022/04/28 11:23:34;;;;;;;4.83;4.20;;;21.50;52.90;;;;;;4846424;29;20212;-76
2022/04/28 11:26:03;;;;;;;4.40;4.00;;;20.50;53.30;;;;;;4841488;29;20638;-77
2022/04/28 11:28:32;;;;;;;6.97;4.20;;;19.80;56.50;;;;;;4842664;29;20321;-75
2022/04/28 11:31:00;;;;;;;5.83;4.40;;;18.90;56.70;;;;;;4831580;29;20678;-77
2022/04/28 11:33:29;;;;;;;6.30;5.20;;;18.30;58.80;;;;;;4854197;29;20559;-78
2022/04/28 11:35:59;;;;;;;5.83;5.00;;;18.20;60.20;;;;;;4851514;29;20219;-77
2022/04/28 11:38:29;;;;;;;5.80;4.60;;;18.40;60.40;;;;;;4855590;29;20239;-76
2022/04/28 11:41:04;;;;;;;5.63;4.30;;;18.80;58.40;;;;;;4849293;29;20247;-76
2022/04/28 11:43:34;;;;;;;5.30;4.20;;;19.10;58.50;;;;;;4841275;29;20339;-76
2022/04/28 11:46:03;;;;;;;6.67;4.40;;;19.50;58.50;;;;;;4845753;29;20211;-76
2022/04/28 11:48:34;;;;;;;5.80;4.80;;;19.90;60.30;;;;;;4852335;29;20240;-75
2022/04/28 11:51:05;;;;;;;5.47;4.87;;;19.90;55.30;;;;;;4846996;29;20215;-76
2022/04/28 11:53:41;;;;;;;5.27;4.40;;;19.00;55.80;;;;;;4849623;29;20223;-75
2022/04/28 11:56:17;;;;;;;5.60;4.13;;;19.40;57.50;;;;;;4852286;29;20252;-76
2022/04/28 11:58:48;;;;;;;5.17;4.50;;;19.90;56.10;;;;;;4849864;29;20215;-77
2022/04/28 12:01:17;;;;;;;6.67;4.30;;;20.10;55.50;;;;;;4844936;29;20239;-76
2022/04/28 12:03:51;;;;;;;4.97;4.37;;;19.50;57.40;;;;;;4853706;29;20226;-75
2022/04/28 12:06:22;;;;;;;6.27;4.53;;;19.50;58.20;;;;;;4849297;29;20257;-76
2022/04/28 12:08:52;;;;;;;4.87;4.37;;;19.60;56.10;;;;;;4844592;29;20276;-77
2022/04/28 12:14:23;;;;;;;5.97;4.07;;;18.80;58.30;;;;;;4861354;29;20297;-78
2022/04/28 12:19:50;;;;;;;5.93;4.60;;;18.70;60.00;;;;;;4830799;29;20251;-78
2022/04/28 12:22:27;;;;;;;5.63;4.53;;;18.60;59.20;;;;;;4867756;29;20284;-76
2022/04/28 12:24:55;;;;;;;5.17;4.67;;;18.70;59.80;;;;;;4855518;29;20274;-77
2022/04/28 12:27:38;;;;;;;5.07;4.07;;;18.70;57.30;;;;;;4862071;29;20253;-76
2022/04/28 12:30:11;;;;;;;5.27;4.57;;;18.90;59.10;;;;;;4866681;29;20207;-79
2022/04/28 12:32:44;;;;;;;7.30;4.23;;;19.20;55.80;;;;;;4864054;29;20696;-77
2022/04/28 12:35:21;;;;;;;4.87;4.00;;;19.40;56.70;;;;;;4860648;29;20298;-78
2022/04/28 12:37:57;;;;;;;6.20;4.57;;;19.50;58.40;;;;;;4865846;29;20211;-78
2022/04/28 12:40:26;;;;;;;7.33;4.47;;;20.00;60.70;;;;;;4863225;29;20211;-77
2022/04/28 12:42:56;;;;;;;5.33;4.33;;;20.10;56.10;;;;;;4856985;29;20221;-76
2022/04/28 12:45:42;;;;;;;5.63;4.20;;;19.60;57.30;;;;;;4857240;29;20202;-77
2022/04/28 12:48:33;;;;;;;5.43;4.03;;;19.70;56.60;;;;;;4860311;29;20245;-76
2022/04/28 12:51:19;;;;;;;4.83;4.00;;;20.10;59.30;;;;;;4854939;29;20326;-77
2022/04/28 12:53:50;;;;;;;4.63;4.00;;;20.30;55.70;;;;;;4859655;29;20214;-75
2022/04/28 12:56:28;;;;;;;7.23;4.17;;;19.70;55.90;;;;;;4859738;29;20247;-77
2022/04/28 12:58:58;;;;;;;5.50;3.80;;;19.40;56.70;;;;;;4863435;29;20267;-76
2022/04/28 13:01:28;;;;;;;4.47;3.83;;;19.40;56.30;;;;;;4855656;29;20211;-78
2022/04/28 13:03:58;;;;;;;5.13;3.60;;;19.30;54.70;;;;;;4855639;29;20593;-76
2022/04/28 13:06:29;;;;;;;5.43;3.70;;;19.10;58.20;;;;;;4862533;29;20298;-76
2022/04/28 13:09:00;;;;;;;7.03;3.90;;;19.20;59.80;;;;;;4852034;29;20231;-75
2022/04/28 13:11:30;;;;;;;9.63;4.40;;;18.90;59.60;;;;;;4864552;29;21370;-77
2022/04/28 13:14:00;;;;;;;5.87;4.07;;;18.70;62.70;;;;;;4873937;29;20211;-78
2022/04/28 13:16:29;;;;;;;5.47;4.00;;;18.40;58.00;;;;;;4841591;29;20208;-76
2022/04/28 13:18:57;;;;;;;4.40;3.90;;;18.00;59.40;;;;;;4844629;29;20570;-79
2022/04/28 13:21:26;;;;;;;5.43;3.83;;;18.30;59.90;;;;;;4844486;29;20306;-78
2022/04/28 13:23:56;;;;;;;5.90;4.17;;;18.40;59.80;;;;;;4840718;29;20256;-77
2022/04/28 13:26:28;;;;;;;7.13;4.13;;;18.80;58.70;;;;;;4844977;29;20235;-76
2022/04/28 13:28:57;;;;;;;6.17;4.30;;;19.10;59.70;;;;;;4838580;29;20236;-77
2022/04/28 13:31:26;;;;;;;5.73;4.30;;;19.10;57.70;;;;;;4832866;29;20291;-76
2022/04/28 13:33:55;;;;;;;6.77;4.43;;;19.10;59.50;;;;;;4839630;29;20220;-76
2022/04/28 13:36:25;;;;;;;6.37;4.43;;;19.10;58.80;;;;;;4827017;29;20220;-79
2022/04/28 13:38:53;;;;;;;4.80;3.73;;;19.30;59.70;;;;;;4828601;29;20204;-74
2022/04/28 13:41:30;;;;;;;6.37;3.97;;;19.40;59.50;;;;;;4826746;29;20208;-76
2022/04/28 13:43:58;;;;;;;4.53;3.60;;;19.50;56.60;;;;;;4828833;29;20255;-77
2022/04/28 13:46:27;;;;;;;6.37;4.40;;;19.50;55.10;;;;;;4840027;29;20268;-77
2022/04/28 13:48:55;;;;;;;4.97;3.80;;;19.50;57.50;;;;;;4844588;29;20239;-78
2022/04/28 13:51:23;;;;;;;4.93;4.20;;;19.70;56.70;;;;;;4845357;29;20216;-77
2022/04/28 13:53:51;;;;;;;5.70;3.67;;;19.80;55.50;;;;;;4844677;29;20219;-77
2022/04/28 13:56:21;;;;;;;6.90;4.77;;;19.80;57.80;;;;;;4839707;29;20215;-77
2022/04/28 13:58:51;;;;;;;4.57;3.90;;;19.20;56.00;;;;;;4856541;29;20330;-78
2022/04/28 14:01:19;;;;;;;4.77;4.20;;;19.30;58.30;;;;;;4846913;29;20686;-73
2022/04/28 14:03:48;;;;;;;5.77;3.93;;;18.20;56.90;;;;;;4844097;29;20230;-75
2022/04/28 14:06:17;;;;;;;5.27;3.57;;;18.30;60.30;;;;;;4859259;29;20212;-77
2022/04/28 14:08:48;;;;;;;5.70;4.10;;;18.30;59.00;;;;;;4851951;29;20270;-75
2022/04/28 14:11:16;;;;;;;6.10;3.97;;;18.40;56.90;;;;;;4857375;29;20215;-75
2022/04/28 14:13:46;;;;;;;6.00;3.50;;;18.30;56.40;;;;;;4851993;29;20713;-77
2022/04/28 14:16:15;;;;;;;6.50;4.47;;;18.50;57.60;;;;;;4857700;29;20219;-76
2022/04/28 14:18:43;;;;;;;5.60;3.90;;;18.40;55.00;;;;;;4839805;29;20636;-79
2022/04/28 14:21:13;;;;;;;4.53;3.70;;;18.30;57.80;;;;;;4856965;29;20266;-76
2022/04/28 14:23:41;;;;;;;6.27;3.67;;;18.50;58.70;;;;;;4845605;29;20264;-78
2022/04/28 14:26:10;;;;;;;5.60;3.17;;;18.40;56.40;;;;;;4861615;29;20598;-77
2022/04/28 14:28:39;;;;;;;4.07;3.60;;;18.10;56.70;;;;;;4857711;29;20232;-77
2022/04/28 14:31:07;;;;;;;4.00;3.60;;;17.90;57.00;;;;;;4849933;29;20211;-76
2022/04/28 14:33:57;;;;;;;5.93;3.50;;;18.00;57.70;;;;;;4859344;29;20238;-76
2022/04/28 14:36:25;;;;;;;5.47;3.53;;;18.40;58.60;;;;;;4857281;29;20211;-75
2022/04/28 14:38:53;;;;;;;6.63;3.60;;;18.30;55.90;;;;;;4859508;29;20214;-75
2022/04/28 14:41:28;;;;;;;4.70;3.63;;;18.00;56.50;;;;;;4859963;29;20666;-76
2022/04/28 14:43:56;;;;;;;5.07;3.50;;;17.50;57.80;;;;;;4855139;29;20771;-76
2022/04/28 14:46:25;;;;;;;5.27;3.70;;;17.60;57.80;;;;;;4843464;29;20239;-75
2022/04/28 14:54:26;;;;;;;5.87;3.40;;;17.30;57.70;;;;;;4850340;29;20575;-77
2022/04/28 14:56:54;;;;;;;5.63;3.63;;;17.10;59.40;;;;;;4850917;29;20287;-74
2022/04/28 14:59:22;;;;;;;7.80;4.07;;;17.10;57.40;;;;;;4858942;29;20207;-78
2022/04/28 15:01:51;;;;;;;4.70;3.30;;;17.10;57.10;;;;;;4852128;29;20239;-79
2022/04/28 15:04:19;;;;;;;5.63;3.10;;;17.50;57.50;;;;;;4858530;29;20215;-74
2022/04/28 15:06:50;;;;;;;4.57;3.20;;;17.60;58.20;;;;;;4858012;29;20219;-77
2022/04/28 15:09:19;;;;;;;4.50;3.40;;;17.90;56.40;;;;;;4847759;29;20721;-76
2022/04/28 15:11:47;;;;;;;5.17;3.03;;;17.80;58.30;;;;;;4851951;29;20305;-75
2022/04/28 15:14:15;;;;;;;4.93;3.30;;;17.90;56.70;;;;;;4852435;29;20238;-76
2022/04/28 15:16:43;;;;;;;3.50;3.10;;;18.00;57.40;;;;;;4853567;29;20215;-78
2022/04/28 15:19:12;;;;;;;4.57;3.33;;;18.00;55.90;;;;;;4860552;29;20254;-75
2022/04/28 15:21:41;;;;;;;4.23;3.40;;;18.00;55.60;;;;;;4860501;29;20225;-76
2022/04/28 15:24:11;;;;;;;4.63;3.00;;;18.10;57.30;;;;;;4843279;29;20696;-74
2022/04/28 15:26:39;;;;;;;3.60;3.17;;;18.30;58.00;;;;;;4844514;29;20298;-78
2022/04/28 15:29:07;;;;;;;4.07;3.57;;;18.10;55.40;;;;;;4842707;29;20252;-75
2022/04/28 15:31:37;;;;;;;4.00;2.93;;;18.30;56.00;;;;;;4842967;29;20268;-75
2022/04/28 15:34:06;;;;;;;4.93;3.57;;;18.10;56.30;;;;;;4842492;29;20215;-73
2022/04/28 15:36:35;;;;;;;4.43;3.40;;;17.90;55.10;;;;;;4855063;29;20765;-76
2022/04/28 15:39:04;;;;;;;5.47;3.60;;;17.80;56.30;;;;;;4861967;29;20759;-77
2022/04/28 15:41:34;;;;;;;3.87;3.30;;;17.60;56.40;;;;;;4860988;29;20257;-76
2022/04/28 15:44:05;;;;;;;4.37;3.03;;;17.70;56.60;;;;;;4860558;29;20266;-74
2022/04/28 15:46:34;;;;;;;4.00;3.17;;;17.70;57.80;;;;;;4858140;29;20243;-74
2022/04/28 15:49:05;;;;;;;4.87;3.20;;;17.70;60.20;;;;;;4860275;29;20238;-75
2022/04/28 15:51:33;;;;;;;4.43;3.70;;;17.90;57.80;;;;;;4842755;29;20222;-76
2022/04/28 15:54:02;;;;;;;5.80;3.80;;;17.90;55.50;;;;;;4853758;29;20243;-73
2022/04/28 15:56:33;;;;;;;3.87;3.30;;;17.80;54.50;;;;;;4859387;29;20626;-77
2022/04/28 15:59:03;;;;;;;3.93;3.30;;;17.70;56.80;;;;;;4859914;29;20271;-75
2022/04/28 16:01:31;;;;;;;6.00;3.17;;;17.70;56.50;;;;;;4856177;29;20299;-75
2022/04/28 16:03:59;;;;;;;5.50;3.00;;;17.70;59.10;;;;;;4854017;29;20225;-75
2022/04/28 16:06:28;;;;;;;5.47;3.70;;;17.90;58.30;;;;;;4841398;29;20212;-79
2022/04/28 16:08:58;;;;;;;4.70;3.20;;;18.00;56.50;;;;;;4854101;29;20266;-75
2022/04/28 16:11:26;;;;;;;5.37;3.53;;;18.20;58.30;;;;;;4859203;29;20214;-79
2022/04/28 16:13:55;;;;;;;4.80;3.73;;;18.10;58.40;;;;;;4859137;29;20311;-76
2022/04/28 16:16:23;;;;;;;6.43;4.00;;;18.10;57.30;;;;;;4852419;29;20306;-76
2022/04/28 16:18:53;;;;;;;7.13;4.03;;;17.90;57.20;;;;;;4854928;29;20559;-74
2022/04/28 16:21:21;;;;;;;8.10;3.83;;;17.70;56.60;;;;;;4850512;29;20223;-76
2022/04/28 16:23:49;;;;;;;5.23;3.80;;;17.20;56.80;;;;;;4860213;29;20688;-79
2022/04/28 16:26:18;;;;;;;5.60;3.97;;;16.90;58.90;;;;;;4834629;29;20700;-77
2022/04/28 16:28:46;;;;;;;6.70;3.80;;;16.60;59.20;;;;;;4850383;29;20645;-75
2022/04/28 16:31:16;;;;;;;5.37;3.90;;;16.50;59.10;;;;;;4848407;29;20266;-78
2022/04/28 16:33:46;;;;;;;5.27;3.90;;;16.30;59.30;;;;;;4841265;29;20306;-77
2022/04/28 16:36:14;;;;;;;5.93;3.90;;;16.20;59.40;;;;;;4854951;29;20627;-78
2022/04/28 16:38:42;;;;;;;4.73;4.03;;;16.10;60.40;;;;;;4850512;29;20215;-77
2022/04/28 16:41:12;;;;;;;4.83;4.00;;;15.90;59.50;;;;;;4854357;29;20310;-76
2022/04/28 16:43:41;;;;;;;5.00;4.23;;;15.90;59.90;;;;;;4857597;29;20299;-74
2022/04/28 16:46:10;;;;;;;5.03;3.97;;;15.90;60.40;;;;;;4859967;29;20262;-78
2022/04/28 16:48:39;;;;;;;5.63;4.23;;;15.80;62.80;;;;;;4859610;29;20241;-77
2022/04/28 16:51:26;;;;;;;6.87;4.00;;;15.80;60.20;;;;;;4845920;29;20302;-77
2022/04/28 16:53:54;;;;;;;6.40;3.80;;;15.80;61.50;;;;;;4852277;29;20304;-75
2022/04/28 16:56:44;;;;;;;5.40;3.73;;;15.80;61.40;;;;;;4839016;29;20323;-73
2022/04/28 16:59:12;;;;;;;5.87;4.20;;;15.80;62.20;;;;;;4861622;29;20680;-74
2022/04/28 17:01:40;;;;;;;5.60;4.13;;;15.70;61.70;;;;;;4854106;29;20316;-76
2022/04/28 17:04:15;;;;;;;6.80;3.97;;;15.70;61.20;;;;;;4845375;29;20647;-75
2022/04/28 17:06:48;;;;;;;6.73;4.40;;;15.70;61.60;;;;;;4844234;29;20271;-75
2022/04/28 17:09:16;;;;;;;6.00;3.93;;;15.70;61.80;;;;;;4844046;29;20672;-77
2022/04/28 17:11:45;;;;;;;4.83;4.07;;;15.60;61.30;;;;;;4843481;29;20258;-76
2022/04/28 17:14:13;;;;;;;4.87;4.17;;;15.60;63.00;;;;;;4844132;29;20220;-76
2022/04/28 17:16:44;;;;;;;7.80;4.10;;;15.60;64.00;;;;;;4844194;29;20212;-75
2022/04/28 17:19:16;;;;;;;6.73;4.13;;;15.50;63.70;;;;;;4844324;29;20264;-75
2022/04/28 17:21:45;;;;;;;6.23;4.33;;;15.40;65.10;;;;;;4844287;29;20669;-76
2022/04/28 17:24:15;;;;;;;5.27;4.10;;;15.20;64.30;;;;;;4843921;29;20219;-76
2022/04/28 17:26:45;;;;;;;5.13;4.03;;;15.10;66.50;;;;;;4844488;29;20311;-76
2022/04/28 17:29:21;;;;;;;6.33;4.43;;;15.00;65.20;;;;;;4843555;29;20302;-77
2022/04/28 17:31:50;;;;;;;6.97;4.17;;;14.90;65.10;;;;;;4843423;29;20291;-77
2022/04/28 17:34:20;;;;;;;7.10;4.53;;;14.80;66.90;;;;;;4843697;29;20226;-78
2022/04/28 17:36:48;;;;;;;6.13;4.50;;;14.70;66.80;;;;;;4844071;29;20219;-76